Time;durP1;ratioP1;P1;durP2;ratioP2;P2;SDS_P1;SDS_P2;PMS_P1;PMS_P2;Temp;Humidity;BMP_temperature;BMP_pressure;BME280_temperature;BME280_humidity;BME280_pressure;Samples;Min_cycle;Max_cycle;Signal;HPM_P1;HPM_P2
2023/05/06 00:00:13;;;;;;;11.35;7.13;;;;;;;-146.18;100.00;67994.34;10029388;28;20040;-70
2023/05/06 00:05:13;;;;;;;12.32;7.68;;;;;;;-146.18;100.00;67994.34;9988622;29;20107;-70
2023/05/06 00:10:09;;;;;;;28.90;19.23;;;;;;;-146.18;100.00;67994.34;10030437;28;20453;-69
2023/05/06 00:15:06;;;;;;;23.52;7.97;;;;;;;-146.18;100.00;67994.34;10024956;28;20115;-68
2023/05/06 00:20:05;;;;;;;11.70;6.78;;;;;;;-146.18;100.00;67994.34;9982997;29;20650;-68
2023/05/06 00:25:01;;;;;;;9.85;7.15;;;;;;;-146.18;100.00;67994.34;10022063;29;20047;-68
2023/05/06 00:29:58;;;;;;;10.25;6.57;;;;;;;-146.18;100.00;67994.34;9995793;29;20062;-69
2023/05/06 00:34:54;;;;;;;9.65;6.72;;;;;;;-146.18;100.00;67994.34;10036653;28;20457;-68
2023/05/06 00:39:51;;;;;;;9.40;6.60;;;;;;;-146.18;100.00;67994.34;10005911;28;20048;-71
2023/05/06 00:44:47;;;;;;;10.65;6.85;;;;;;;-146.18;100.00;67994.34;9982731;29;20056;-69
2023/05/06 00:49:45;;;;;;;13.20;7.25;;;;;;;-146.18;100.00;67994.34;10027327;29;20044;-69
2023/05/06 00:54:42;;;;;;;10.50;6.38;;;;;;;-146.18;100.00;67994.34;9982222;28;20502;-69
2023/05/06 00:59:43;;;;;;;8.95;6.57;;;;;;;-146.18;100.00;67994.34;10018067;29;20043;-73
2023/05/06 01:04:40;;;;;;;10.25;6.05;;;;;;;-146.18;100.00;67994.34;10026186;28;20074;-73
2023/05/06 01:09:50;;;;;;;9.02;6.95;;;;;;;-146.18;100.00;67994.34;9989662;28;20103;-68
2023/05/06 01:14:56;;;;;;;11.98;7.65;;;;;;;-146.18;100.00;67994.34;10031209;29;20047;-68
2023/05/06 01:19:57;;;;;;;12.90;7.13;;;;;;;-146.18;100.00;67994.34;10019862;29;20127;-68
2023/05/06 01:24:53;;;;;;;9.57;7.05;;;;;;;-146.18;100.00;67994.34;10023793;29;20139;-72
2023/05/06 01:29:50;;;;;;;15.90;7.10;;;;;;;-146.18;100.00;67994.34;9991250;28;20082;-72
2023/05/06 01:35:05;;;;;;;11.00;6.85;;;;;;;-146.18;100.00;67994.34;9984813;29;20134;-73
2023/05/06 01:40:02;;;;;;;9.50;7.15;;;;;;;-146.18;100.00;67994.34;9988757;29;20091;-73
2023/05/06 01:45:01;;;;;;;9.35;6.75;;;;;;;-146.18;100.00;67994.34;9990696;29;20080;-69
2023/05/06 01:49:59;;;;;;;10.65;6.72;;;;;;;-146.18;100.00;67994.34;10026271;29;20130;-69
2023/05/06 01:54:56;;;;;;;12.18;7.60;;;;;;;-146.18;100.00;67994.34;10009418;28;20095;-72
2023/05/06 01:59:52;;;;;;;13.63;7.30;;;;;;;-146.18;100.00;67994.34;9985372;29;20139;-70
2023/05/06 02:04:52;;;;;;;11.65;8.23;;;;;;;-146.18;100.00;67994.34;10031600;29;20059;-72
2023/05/06 02:09:48;;;;;;;10.82;6.93;;;;;;;-146.18;100.00;67994.34;10038287;28;20143;-69
2023/05/06 02:14:45;;;;;;;16.05;7.63;;;;;;;-146.18;100.00;67994.34;10030206;29;20054;-70
2023/05/06 02:19:41;;;;;;;10.25;6.97;;;;;;;-146.18;100.00;67994.34;10027949;28;20126;-69
2023/05/06 02:24:38;;;;;;;13.10;8.32;;;;;;;-146.18;100.00;67994.34;9992841;28;20063;-69
2023/05/06 02:29:34;;;;;;;10.25;7.70;;;;;;;-146.18;100.00;67994.34;10025282;29;20151;-69
2023/05/06 02:34:31;;;;;;;9.60;8.15;;;;;;;-146.18;100.00;67994.34;10021123;29;20812;-69
2023/05/06 02:39:27;;;;;;;14.60;8.45;;;;;;;-146.18;100.00;67994.34;9994225;29;20485;-68
2023/05/06 02:44:24;;;;;;;12.27;7.93;;;;;;;-146.18;100.00;67994.34;9989901;29;20047;-71
2023/05/06 02:49:20;;;;;;;10.27;7.32;;;;;;;-146.18;100.00;67994.34;9990722;29;20048;-69
2023/05/06 02:54:17;;;;;;;12.63;8.15;;;;;;;-146.18;100.00;67994.34;10000969;28;20063;-67
2023/05/06 02:59:13;;;;;;;11.55;8.10;;;;;;;-146.18;100.00;67994.34;9989083;29;20083;-68
2023/05/06 03:04:10;;;;;;;10.60;7.32;;;;;;;-146.18;100.00;67994.34;10021797;29;20134;-70
2023/05/06 03:09:07;;;;;;;9.85;8.20;;;;;;;-146.18;100.00;67994.34;9998971;29;20052;-70
2023/05/06 03:14:04;;;;;;;11.93;7.32;;;;;;;-146.18;100.00;67994.34;10023272;29;20039;-70
2023/05/06 03:19:02;;;;;;;10.63;8.38;;;;;;;-146.18;100.00;67994.34;10048010;28;20104;-67
2023/05/06 03:23:58;;;;;;;9.10;8.10;;;;;;;-146.18;100.00;67994.34;9999689;28;20044;-68
2023/05/06 03:28:55;;;;;;;11.95;9.05;;;;;;;-146.18;100.00;67994.34;9987701;29;20507;-67
2023/05/06 03:33:51;;;;;;;10.75;8.70;;;;;;;-146.18;100.00;67994.34;10020089;29;20052;-67
2023/05/06 03:38:48;;;;;;;10.85;8.90;;;;;;;-146.18;100.00;67994.34;10007328;28;20439;-71
2023/05/06 03:43:45;;;;;;;12.23;8.95;;;;;;;-146.18;100.00;67994.34;10014537;29;20072;-71
2023/05/06 03:48:44;;;;;;;9.75;8.18;;;;;;;-146.18;100.00;67994.34;10007710;28;20498;-70
2023/05/06 03:53:40;;;;;;;11.30;7.97;;;;;;;-146.18;100.00;67994.34;10015830;29;20127;-70
2023/05/06 03:58:37;;;;;;;10.00;8.75;;;;;;;-146.18;100.00;67994.34;10028477;28;20127;-71
2023/05/06 04:03:33;;;;;;;10.80;8.48;;;;;;;-146.18;100.00;67994.34;10018707;29;20070;-70
2023/05/06 04:08:30;;;;;;;12.07;8.10;;;;;;;-146.18;100.00;67994.34;10024367;28;20047;-73
2023/05/06 04:13:26;;;;;;;10.60;8.88;;;;;;;-146.18;100.00;67994.34;10030405;29;20071;-71
2023/05/06 04:18:23;;;;;;;11.65;8.13;;;;;;;-146.18;100.00;67994.34;10027426;28;20047;-70
2023/05/06 04:23:20;;;;;;;12.15;8.10;;;;;;;-146.18;100.00;67994.34;10025970;28;20092;-70
2023/05/06 04:28:16;;;;;;;9.32;8.05;;;;;;;-146.18;100.00;67994.34;10029319;28;20131;-71
2023/05/06 04:33:13;;;;;;;10.55;8.02;;;;;;;-146.18;100.00;67994.34;10027396;28;20091;-72
2023/05/06 04:38:10;;;;;;;9.55;8.25;;;;;;;-146.18;100.00;67994.34;10019207;29;20047;-71
2023/05/06 04:43:07;;;;;;;10.25;9.18;;;;;;;-146.18;100.00;67994.34;10029226;28;20724;-72
2023/05/06 04:48:03;;;;;;;11.35;8.85;;;;;;;-146.18;100.00;67994.34;10021230;28;20153;-70
2023/05/06 04:53:00;;;;;;;9.85;8.18;;;;;;;-146.18;100.00;67994.34;10002693;28;20131;-70
2023/05/06 04:57:56;;;;;;;10.43;8.40;;;;;;;-146.18;100.00;67994.34;9978608;29;20044;-72
2023/05/06 05:02:53;;;;;;;15.50;9.57;;;;;;;-146.18;100.00;67994.34;9998721;29;20044;-71
2023/05/06 05:07:52;;;;;;;9.07;7.90;;;;;;;-146.18;100.00;67994.34;9980827;29;20376;-72
2023/05/06 05:12:48;;;;;;;11.95;9.45;;;;;;;-146.18;100.00;67994.34;9996018;29;20175;-70
2023/05/06 05:17:46;;;;;;;11.32;8.95;;;;;;;-146.18;100.00;67994.34;9986060;29;20135;-70
2023/05/06 05:22:42;;;;;;;9.60;8.65;;;;;;;-146.18;100.00;67994.34;9992747;29;20539;-69
2023/05/06 05:27:41;;;;;;;11.13;9.77;;;;;;;-146.18;100.00;67994.34;10014310;29;20079;-69
2023/05/06 05:32:37;;;;;;;11.00;9.43;;;;;;;-146.18;100.00;67994.34;10006347;28;20056;-68
2023/05/06 05:37:34;;;;;;;11.20;9.25;;;;;;;-146.18;100.00;67994.34;9991720;29;20052;-69
2023/05/06 05:42:32;;;;;;;10.10;9.10;;;;;;;-146.18;100.00;67994.34;10001848;29;20044;-69
2023/05/06 05:47:29;;;;;;;13.27;9.93;;;;;;;-146.18;100.00;67994.34;9988394;29;20571;-69
2023/05/06 05:52:26;;;;;;;10.48;9.20;;;;;;;-146.18;100.00;67994.34;10009894;29;20048;-69
2023/05/06 05:57:23;;;;;;;16.60;10.25;;;;;;;-146.18;100.00;67994.34;10009850;28;20059;-68
2023/05/06 06:02:19;;;;;;;15.27;9.80;;;;;;;-146.18;100.00;67994.34;10000778;28;20106;-69
2023/05/06 06:07:17;;;;;;;11.30;10.20;;;;;;;-146.18;100.00;67994.34;9985942;29;20071;-68
2023/05/06 06:12:14;;;;;;;16.13;9.82;;;;;;;-146.18;100.00;67994.34;9995991;29;20044;-69
2023/05/06 06:17:11;;;;;;;15.98;10.70;;;;;;;-146.18;100.00;67994.34;9991162;28;20082;-69
2023/05/06 06:22:07;;;;;;;13.40;10.07;;;;;;;-146.18;100.00;67994.34;9999439;28;20611;-68
2023/05/06 06:27:04;;;;;;;12.45;9.95;;;;;;;-146.18;100.00;67994.34;9997838;28;20052;-69
2023/05/06 06:32:02;;;;;;;17.27;10.48;;;;;;;-146.18;100.00;67994.34;9990209;28;20152;-69
2023/05/06 06:36:59;;;;;;;15.35;10.25;;;;;;;-146.18;100.00;67994.34;9995798;28;20623;-69
2023/05/06 06:41:57;;;;;;;11.23;9.52;;;;;;;-146.18;100.00;67994.34;9990289;29;20550;-66
2023/05/06 06:46:53;;;;;;;12.25;10.00;;;;;;;-146.18;100.00;67994.34;9993349;28;20542;-66
2023/05/06 06:51:50;;;;;;;11.15;9.88;;;;;;;-146.18;100.00;67994.34;9986193;29;20491;-67
2023/05/06 06:56:47;;;;;;;11.05;9.95;;;;;;;-146.18;100.00;67994.34;9990099;28;20100;-66
2023/05/06 07:01:43;;;;;;;14.40;9.52;;;;;;;-146.18;100.00;67994.34;9990291;28;20502;-66
2023/05/06 07:06:40;;;;;;;10.82;9.80;;;;;;;-146.18;100.00;67994.34;9981469;29;20093;-66
2023/05/06 07:11:36;;;;;;;14.40;10.70;;;;;;;-146.18;100.00;67994.34;9987048;28;20494;-66
2023/05/06 07:16:33;;;;;;;13.90;10.20;;;;;;;-146.18;100.00;67994.34;9983796;29;20661;-65
2023/05/06 07:21:32;;;;;;;11.70;10.13;;;;;;;-146.18;100.00;67994.34;9990797;29;20071;-65
2023/05/06 07:26:29;;;;;;;16.52;12.18;;;;;;;-146.18;100.00;67994.34;9995091;29;20055;-65
2023/05/06 07:31:25;;;;;;;11.23;10.05;;;;;;;-146.18;100.00;67994.34;9993274;29;20423;-65
2023/05/06 07:36:22;;;;;;;13.45;10.85;;;;;;;-146.18;100.00;67994.34;10004103;28;20048;-65
2023/05/06 07:41:19;;;;;;;15.48;10.55;;;;;;;-146.18;100.00;67994.34;9992276;28;20059;-65
2023/05/06 07:46:16;;;;;;;15.50;10.88;;;;;;;-146.18;100.00;67994.34;9985227;29;20146;-65
2023/05/06 07:51:16;;;;;;;12.45;9.82;;;;;;;-146.18;100.00;67994.34;9983696;28;20115;-66
2023/05/06 07:56:13;;;;;;;14.52;11.65;;;;;;;-146.18;100.00;67994.34;9988768;28;20044;-65
2023/05/06 08:01:09;;;;;;;13.40;11.00;;;;;;;-146.18;100.00;67994.34;9991909;29;20052;-65
2023/05/06 08:06:06;;;;;;;10.63;9.63;;;;;;;-146.18;100.00;67994.34;9990796;29;20131;-65
2023/05/06 08:11:02;;;;;;;11.95;10.15;;;;;;;-146.18;100.00;67994.34;9997125;28;20084;-65
2023/05/06 08:16:01;;;;;;;12.02;10.10;;;;;;;-146.18;100.00;67994.34;9987333;28;20048;-65
2023/05/06 08:20:57;;;;;;;11.52;10.43;;;;;;;-146.18;100.00;67994.34;9982667;28;20056;-66
2023/05/06 08:25:54;;;;;;;15.80;11.70;;;;;;;-146.18;100.00;67994.34;9984805;28;20625;-66
2023/05/06 08:30:51;;;;;;;11.48;9.98;;;;;;;-146.18;100.00;67994.34;9987461;29;20139;-65
2023/05/06 08:35:48;;;;;;;13.05;11.05;;;;;;;-146.18;100.00;67994.34;9979011;28;20131;-65
2023/05/06 08:40:45;;;;;;;17.92;11.82;;;;;;;-146.18;100.00;67994.34;9976969;28;20044;-66
2023/05/06 08:45:44;;;;;;;11.27;10.10;;;;;;;-146.18;100.00;67994.34;9982118;28;20460;-66
2023/05/06 08:50:42;;;;;;;10.95;9.68;;;;;;;-146.18;100.00;67994.34;9983170;29;20570;-66
2023/05/06 08:55:42;;;;;;;14.93;9.75;;;;;;;-146.18;100.00;67994.34;9983615;28;20048;-66
2023/05/06 09:00:41;;;;;;;;;;;;;;;-146.18;100.00;67994.34;9988481;28;20052;-66
2023/05/06 09:05:38;;;;;;;12.98;11.18;;;;;;;-146.18;100.00;67994.34;9988313;28;20005;-66
2023/05/06 09:10:45;;;;;;;13.63;11.00;;;;;;;-146.18;100.00;67994.34;9986334;28;20423;-65
2023/05/06 09:15:43;;;;;;;11.38;10.10;;;;;;;-146.18;100.00;67994.34;9980856;29;20052;-65
2023/05/06 09:20:41;;;;;;;13.07;10.85;;;;;;;-146.18;100.00;67994.34;9986976;28;20044;-65
2023/05/06 09:25:40;;;;;;;13.75;11.65;;;;;;;-146.18;100.00;67994.34;9987936;28;20044;-66
2023/05/06 09:30:46;;;;;;;14.77;10.52;;;;;;;-146.18;100.00;67994.34;9990724;29;20130;-65
2023/05/06 09:35:43;;;;;;;13.15;10.65;;;;;;;-146.18;100.00;67994.34;9977534;29;20486;-65
2023/05/06 09:40:39;;;;;;;17.30;11.95;;;;;;;-146.18;100.00;67994.34;9990612;28;20048;-66
2023/05/06 09:45:36;;;;;;;12.50;10.35;;;;;;;-146.18;100.00;67994.34;9976442;28;20122;-65
2023/05/06 09:50:35;;;;;;;13.10;10.38;;;;;;;-146.18;100.00;67994.34;9980074;28;20075;-66
2023/05/06 09:55:32;;;;;;;12.30;9.95;;;;;;;-146.18;100.00;67994.34;9978743;28;20441;-66
2023/05/06 10:00:30;;;;;;;13.35;11.10;;;;;;;-146.18;100.00;67994.34;9990357;29;20079;-67
2023/05/06 10:05:27;;;;;;;17.38;11.43;;;;;;;-146.18;100.00;67994.34;9983314;29;20171;-68
2023/05/06 10:10:26;;;;;;;15.63;12.27;;;;;;;-146.18;100.00;67994.34;9992023;28;20052;-67
2023/05/06 10:15:24;;;;;;;15.07;10.82;;;;;;;-146.18;100.00;67994.34;9992011;28;20503;-68
2023/05/06 10:20:26;;;;;;;17.05;11.40;;;;;;;-146.18;100.00;67994.34;9987891;28;20051;-69
2023/05/06 10:25:31;;;;;;;12.18;10.88;;;;;;;-146.18;100.00;67994.34;9981817;29;20080;-69
2023/05/06 10:30:29;;;;;;;21.67;13.13;;;;;;;-146.18;100.00;67994.34;9970307;29;20506;-68
2023/05/06 10:35:40;;;;;;;13.02;10.93;;;;;;;-146.18;100.00;67994.34;9986501;29;20045;-69
2023/05/06 10:40:37;;;;;;;13.02;11.23;;;;;;;-146.18;100.00;67994.34;9978211;28;20752;-69
2023/05/06 10:46:12;;;;;;;15.15;11.10;;;;;;;-146.18;100.00;67994.34;9973109;29;20141;-68
2023/05/06 10:51:15;;;;;;;16.08;11.02;;;;;;;-146.18;100.00;67994.34;9967792;29;20143;-68
2023/05/06 10:56:12;;;;;;;13.68;11.55;;;;;;;-146.18;100.00;67994.34;9986400;28;20585;-68
2023/05/06 11:01:09;;;;;;;18.23;11.70;;;;;;;-146.18;100.00;67994.34;9993430;29;20080;-68
2023/05/06 11:06:06;;;;;;;18.98;12.45;;;;;;;-146.18;100.00;67994.34;10023239;28;20052;-68
2023/05/06 11:11:41;;;;;;;15.43;12.15;;;;;;;-146.18;100.00;67994.34;9991983;28;20071;-68
2023/05/06 11:16:48;;;;;;;15.88;13.07;;;;;;;-146.18;100.00;67994.34;9990185;28;20056;-68
2023/05/06 11:21:44;;;;;;;17.23;13.52;;;;;;;-146.18;100.00;67994.34;9990037;28;20044;-69
2023/05/06 11:26:42;;;;;;;14.93;11.38;;;;;;;-146.18;100.00;67994.34;9987452;28;20044;-67
2023/05/06 11:31:40;;;;;;;14.18;12.40;;;;;;;-146.18;100.00;67994.34;9986161;28;20135;-70
2023/05/06 11:36:45;;;;;;;15.57;11.80;;;;;;;-146.18;100.00;67994.34;9988087;28;20064;-67
2023/05/06 11:41:41;;;;;;;14.88;11.10;;;;;;;-146.18;100.00;67994.34;9987540;28;20079;-68
2023/05/06 11:46:38;;;;;;;15.48;12.15;;;;;;;-146.18;100.00;67994.34;9986881;29;20054;-70
2023/05/06 11:51:34;;;;;;;14.98;12.98;;;;;;;-146.18;100.00;67994.34;9984992;28;20055;-70
2023/05/06 11:56:44;;;;;;;15.00;12.75;;;;;;;-146.18;100.00;67994.34;9985629;28;20082;-70
2023/05/06 12:01:42;;;;;;;15.10;12.55;;;;;;;-146.18;100.00;67994.34;10000203;28;20870;-68
2023/05/06 12:06:39;;;;;;;17.02;13.20;;;;;;;-146.18;100.00;67994.34;10000904;28;20142;-68
2023/05/06 12:11:36;;;;;;;14.75;11.82;;;;;;;-146.18;100.00;67994.34;9991794;28;20050;-69
2023/05/06 12:16:34;;;;;;;14.57;11.88;;;;;;;-146.18;100.00;67994.34;9999128;29;20350;-68
2023/05/06 12:21:31;;;;;;;16.48;12.50;;;;;;;-146.18;100.00;67994.34;10019842;28;20048;-69
2023/05/06 12:26:42;;;;;;;16.25;12.90;;;;;;;-146.18;100.00;67994.34;10028505;29;20126;-68
2023/05/06 12:31:38;;;;;;;15.63;12.40;;;;;;;-146.18;100.00;67994.34;10020610;28;20062;-68
2023/05/06 12:36:39;;;;;;;18.25;11.52;;;;;;;-146.18;100.00;67994.34;10026203;28;20127;-69
2023/05/06 12:41:43;;;;;;;14.55;11.35;;;;;;;-146.18;100.00;67994.34;10027787;28;20040;-68
2023/05/06 12:46:49;;;;;;;13.68;11.30;;;;;;;-146.18;100.00;67994.34;10023963;28;20399;-68
2023/05/06 12:51:46;;;;;;;15.40;11.73;;;;;;;-146.18;100.00;67994.34;10024123;28;20680;-69
2023/05/06 12:56:43;;;;;;;16.92;12.27;;;;;;;-146.18;100.00;67994.34;10020247;29;20134;-69
2023/05/06 13:01:40;;;;;;;14.98;11.43;;;;;;;-146.18;100.00;67994.34;10022821;28;20143;-69
2023/05/06 13:06:36;;;;;;;14.65;12.43;;;;;;;-146.18;100.00;67994.34;10022151;28;20954;-70
2023/05/06 13:11:33;;;;;;;13.63;10.70;;;;;;;-146.18;100.00;67994.34;10030591;28;20602;-69
2023/05/06 13:16:31;;;;;;;13.23;11.20;;;;;;;-146.18;100.00;67994.34;10020984;28;20047;-69
2023/05/06 13:21:27;;;;;;;18.83;11.20;;;;;;;-146.18;100.00;67994.34;10026371;28;20052;-69
2023/05/06 13:26:27;;;;;;;14.88;11.30;;;;;;;-146.18;100.00;67994.34;10012330;28;20430;-69
2023/05/06 13:31:24;;;;;;;13.10;11.00;;;;;;;-146.18;100.00;67994.34;10024448;29;20501;-69
2023/05/06 13:36:24;;;;;;;13.63;11.70;;;;;;;-146.18;100.00;67994.34;10020855;28;20063;-69
2023/05/06 13:41:21;;;;;;;16.42;13.02;;;;;;;-146.18;100.00;67994.34;10023689;29;20502;-69
2023/05/06 13:46:18;;;;;;;12.95;11.23;;;;;;;-146.18;100.00;67994.34;10028894;28;20134;-69
2023/05/06 13:51:15;;;;;;;14.40;11.15;;;;;;;-146.18;100.00;67994.34;10023285;28;20047;-69
2023/05/06 13:56:11;;;;;;;14.80;11.88;;;;;;;-146.18;100.00;67994.34;10017497;28;20175;-69
2023/05/06 14:01:08;;;;;;;13.00;11.00;;;;;;;-146.18;100.00;67994.34;10021244;29;20422;-69
2023/05/06 14:06:04;;;;;;;14.65;10.95;;;;;;;-146.18;100.00;67994.34;10029907;28;20134;-69
2023/05/06 14:11:02;;;;;;;16.20;10.63;;;;;;;-146.18;100.00;67994.34;10023710;28;20722;-69
2023/05/06 14:15:59;;;;;;;14.60;11.52;;;;;;;-146.18;100.00;67994.34;10026120;28;20411;-69
2023/05/06 14:20:55;;;;;;;14.38;11.07;;;;;;;-146.18;100.00;67994.34;10023347;28;20052;-69
2023/05/06 14:25:52;;;;;;;13.00;11.40;;;;;;;-146.18;100.00;67994.34;9986709;29;20056;-69
2023/05/06 14:30:50;;;;;;;15.25;11.40;;;;;;;-146.18;100.00;67994.34;9992678;29;20044;-69
2023/05/06 14:35:46;;;;;;;13.13;10.57;;;;;;;-146.18;100.00;67994.34;9991551;29;20044;-69
2023/05/06 14:40:49;;;;;;;12.50;10.18;;;;;;;-146.18;100.00;67994.34;9984389;28;20115;-72
2023/05/06 14:45:46;;;;;;;15.23;11.43;;;;;;;-146.18;100.00;67994.34;9985618;29;20044;-71
2023/05/06 14:50:42;;;;;;;13.80;10.65;;;;;;;-146.18;100.00;67994.34;9985468;29;20501;-69
2023/05/06 14:55:40;;;;;;;13.07;11.00;;;;;;;-146.18;100.00;67994.34;9983045;29;20127;-71
2023/05/06 15:00:36;;;;;;;13.57;10.85;;;;;;;-146.18;100.00;67994.34;9984843;29;20048;-71
2023/05/06 15:05:35;;;;;;;12.95;10.98;;;;;;;-146.18;100.00;67994.34;9990328;29;20047;-71
2023/05/06 15:10:32;;;;;;;17.42;10.70;;;;;;;-146.18;100.00;67994.34;9994417;29;20422;-70
2023/05/06 15:15:28;;;;;;;13.85;10.60;;;;;;;-146.18;100.00;67994.34;9974555;29;20138;-70
2023/05/06 15:20:25;;;;;;;14.98;11.25;;;;;;;-146.18;100.00;67994.34;9999275;29;20043;-70
2023/05/06 15:25:22;;;;;;;13.48;10.82;;;;;;;-146.18;100.00;67994.34;10016389;28;20756;-70
2023/05/06 15:30:30;;;;;;;17.80;11.93;;;;;;;-146.18;100.00;67994.34;10014631;28;20055;-71
2023/05/06 15:35:27;;;;;;;17.58;11.77;;;;;;;-146.18;100.00;67994.34;9986748;29;20055;-71
2023/05/06 15:40:25;;;;;;;17.67;12.65;;;;;;;-146.18;100.00;67994.34;10029638;28;20052;-71
2023/05/06 15:45:21;;;;;;;19.20;13.32;;;;;;;-146.18;100.00;67994.34;10017541;29;20055;-72
2023/05/06 15:50:18;;;;;;;18.65;13.32;;;;;;;-146.18;100.00;67994.34;10028089;28;20489;-71
2023/05/06 15:55:28;;;;;;;17.48;13.75;;;;;;;-146.18;100.00;67994.34;10020743;28;20044;-71
2023/05/06 16:00:26;;;;;;;19.83;14.85;;;;;;;-146.18;100.00;67994.34;10025790;29;20079;-71
2023/05/06 16:05:23;;;;;;;19.45;14.20;;;;;;;-146.18;100.00;67994.34;10023489;29;20055;-71
2023/05/06 16:10:19;;;;;;;21.10;15.07;;;;;;;-146.18;100.00;67994.34;10023564;28;20051;-72
2023/05/06 16:15:16;;;;;;;20.23;15.77;;;;;;;-146.18;100.00;67994.34;9991551;29;20044;-72
2023/05/06 16:20:12;;;;;;;16.75;12.75;;;;;;;-146.18;100.00;67994.34;9981998;29;20139;-72
2023/05/06 16:25:09;;;;;;;20.63;16.02;;;;;;;-146.18;100.00;67994.34;9986066;29;20048;-71
2023/05/06 16:30:07;;;;;;;19.30;14.40;;;;;;;-146.18;100.00;67994.34;10020438;28;20490;-71
2023/05/06 16:35:04;;;;;;;20.38;16.00;;;;;;;-146.18;100.00;67994.34;10013661;29;20542;-72
2023/05/06 16:40:01;;;;;;;21.05;14.50;;;;;;;-146.18;100.00;67994.34;10005051;29;20056;-71
2023/05/06 16:44:57;;;;;;;20.63;15.45;;;;;;;-146.18;100.00;67994.34;10004789;29;20136;-71
2023/05/06 16:49:54;;;;;;;22.67;15.20;;;;;;;-146.18;100.00;67994.34;10002528;29;20060;-71
2023/05/06 16:54:51;;;;;;;21.42;15.27;;;;;;;-146.18;100.00;67994.34;10001802;29;20059;-71
2023/05/06 16:59:47;;;;;;;25.65;15.10;;;;;;;-146.18;100.00;67994.34;9994386;28;21001;-71
2023/05/06 17:04:44;;;;;;;20.05;15.75;;;;;;;-146.18;100.00;67994.34;9974520;28;20072;-70
2023/05/06 17:09:40;;;;;;;20.63;15.38;;;;;;;-146.18;100.00;67994.34;9969064;29;20131;-71
2023/05/06 17:14:37;;;;;;;18.88;14.55;;;;;;;-146.18;100.00;67994.34;10000692;29;20413;-71
2023/05/06 17:19:33;;;;;;;18.35;15.27;;;;;;;-146.18;100.00;67994.34;10000237;29;20045;-70
2023/05/06 17:24:30;;;;;;;19.67;14.68;;;;;;;-146.18;100.00;67994.34;10004052;29;20048;-70
2023/05/06 17:29:27;;;;;;;19.95;16.00;;;;;;;-146.18;100.00;67994.34;10008752;29;20612;-70
2023/05/06 17:34:23;;;;;;;19.10;15.82;;;;;;;-146.18;100.00;67994.34;10023433;29;20042;-69
2023/05/06 17:39:20;;;;;;;18.55;16.10;;;;;;;-146.18;100.00;67994.34;9990658;28;20070;-68
2023/05/06 17:44:17;;;;;;;17.63;13.85;;;;;;;-146.18;100.00;67994.34;9983726;29;20088;-69
2023/05/06 17:49:13;;;;;;;26.08;16.27;;;;;;;-146.18;100.00;67994.34;9977100;29;20119;-71
2023/05/06 17:54:10;;;;;;;18.15;14.88;;;;;;;-146.18;100.00;67994.34;9984202;29;20076;-72
2023/05/06 17:59:07;;;;;;;19.55;15.55;;;;;;;-146.18;100.00;67994.34;9972580;29;20139;-71
2023/05/06 18:04:03;;;;;;;23.23;16.67;;;;;;;-146.18;100.00;67994.34;10018202;29;20046;-71
2023/05/06 18:09:00;;;;;;;19.38;15.52;;;;;;;-146.18;100.00;67994.34;10036784;28;20391;-71
2023/05/06 18:13:56;;;;;;;21.58;15.82;;;;;;;-146.18;100.00;67994.34;9980286;29;20063;-72
2023/05/06 18:18:53;;;;;;;19.45;13.82;;;;;;;-146.18;100.00;67994.34;9974524;28;20062;-71
2023/05/06 18:23:49;;;;;;;19.00;14.38;;;;;;;-146.18;100.00;67994.34;9963231;29;20543;-70
2023/05/06 18:28:54;;;;;;;20.17;15.00;;;;;;;-146.18;100.00;67994.34;10018172;29;20178;-71
2023/05/06 18:33:51;;;;;;;20.25;14.38;;;;;;;-146.18;100.00;67994.34;10040551;28;20083;-69
2023/05/06 18:38:47;;;;;;;22.88;15.60;;;;;;;-146.18;100.00;67994.34;10026473;28;20114;-71
2023/05/06 18:43:44;;;;;;;20.95;14.63;;;;;;;-146.18;100.00;67994.34;10021426;28;20048;-70
2023/05/06 18:48:41;;;;;;;17.52;13.75;;;;;;;-146.18;100.00;67994.34;10024963;29;20048;-70
2023/05/06 18:53:37;;;;;;;18.67;14.80;;;;;;;-146.18;100.00;67994.34;9992625;28;20725;-70
2023/05/06 18:58:35;;;;;;;20.40;15.88;;;;;;;-146.18;100.00;67994.34;9983192;29;20080;-70
2023/05/06 19:03:33;;;;;;;17.02;13.95;;;;;;;-146.18;100.00;67994.34;9991799;29;20433;-70
2023/05/06 19:08:31;;;;;;;17.05;13.05;;;;;;;-146.18;100.00;67994.34;9991457;29;20054;-70
2023/05/06 19:13:28;;;;;;;18.58;14.45;;;;;;;-146.18;100.00;67994.34;10018323;29;20474;-69
2023/05/06 19:18:24;;;;;;;17.02;12.90;;;;;;;-146.18;100.00;67994.34;10028324;28;20533;-70
2023/05/06 19:23:21;;;;;;;23.67;15.10;;;;;;;-146.18;100.00;67994.34;9999795;28;20159;-70
2023/05/06 19:28:17;;;;;;;21.42;15.52;;;;;;;-146.18;100.00;67994.34;10016739;29;20062;-70
2023/05/06 19:33:14;;;;;;;24.05;14.95;;;;;;;-146.18;100.00;67994.34;10022574;29;20051;-69
2023/05/06 19:38:10;;;;;;;24.40;15.85;;;;;;;-146.18;100.00;67994.34;10020591;28;20433;-70
2023/05/06 19:43:07;;;;;;;22.83;16.05;;;;;;;-146.18;100.00;67994.34;10027968;28;20502;-69
2023/05/06 19:48:04;;;;;;;19.30;15.25;;;;;;;-146.18;100.00;67994.34;10021120;29;20078;-71
2023/05/06 19:53:01;;;;;;;20.90;15.40;;;;;;;-146.18;100.00;67994.34;10025370;28;20055;-71
2023/05/06 19:57:58;;;;;;;24.08;16.73;;;;;;;-146.18;100.00;67994.34;10018334;29;20486;-71
2023/05/06 20:02:58;;;;;;;21.77;15.70;;;;;;;-146.18;100.00;67994.34;10029208;28;20052;-70
2023/05/06 20:07:55;;;;;;;21.48;14.90;;;;;;;-146.18;100.00;67994.34;10030537;28;20067;-71
2023/05/06 20:12:55;;;;;;;19.60;15.43;;;;;;;-146.18;100.00;67994.34;10018877;29;20067;-71
2023/05/06 20:17:53;;;;;;;24.17;16.20;;;;;;;-146.18;100.00;67994.34;10020777;28;20143;-71
2023/05/06 20:22:50;;;;;;;22.15;15.82;;;;;;;-146.18;100.00;67994.34;10021924;28;20565;-71
2023/05/06 20:27:47;;;;;;;20.67;15.82;;;;;;;-146.18;100.00;67994.34;10044790;28;20191;-71
2023/05/06 20:32:44;;;;;;;23.50;15.30;;;;;;;-146.18;100.00;67994.34;10026700;28;20047;-71
2023/05/06 20:37:42;;;;;;;20.40;15.95;;;;;;;-146.18;100.00;67994.34;10025470;28;20051;-71
2023/05/06 20:42:40;;;;;;;22.70;16.50;;;;;;;-146.18;100.00;67994.34;10023075;28;20055;-71
2023/05/06 20:47:36;;;;;;;21.75;17.55;;;;;;;-146.18;100.00;67994.34;10019631;29;20122;-71
2023/05/06 20:52:36;;;;;;;22.30;15.50;;;;;;;-146.18;100.00;67994.34;10003413;28;20395;-70
2023/05/06 20:57:33;;;;;;;19.33;15.73;;;;;;;-146.18;100.00;67994.34;10005221;28;20726;-71
2023/05/06 21:02:33;;;;;;;20.23;15.55;;;;;;;-146.18;100.00;67994.34;10039933;28;20474;-71
2023/05/06 21:07:37;;;;;;;16.95;14.73;;;;;;;-146.18;100.00;67994.34;10007009;28;20051;-71
2023/05/06 21:12:33;;;;;;;19.10;14.27;;;;;;;-146.18;100.00;67994.34;9992988;29;20541;-71
2023/05/06 21:17:31;;;;;;;18.35;14.13;;;;;;;-146.18;100.00;67994.34;9983704;28;20064;-71
2023/05/06 21:22:28;;;;;;;18.75;14.40;;;;;;;-146.18;100.00;67994.34;9986388;29;20056;-69
2023/05/06 21:27:25;;;;;;;21.15;16.05;;;;;;;-146.18;100.00;67994.34;9978569;29;20067;-71
2023/05/06 21:32:21;;;;;;;19.08;14.43;;;;;;;-146.18;100.00;67994.34;9986141;28;20052;-71
2023/05/06 21:37:18;;;;;;;18.23;13.45;;;;;;;-146.18;100.00;67994.34;9984682;28;20056;-71
2023/05/06 21:42:15;;;;;;;15.15;13.40;;;;;;;-146.18;100.00;67994.34;9985524;28;20437;-70
2023/05/06 21:47:12;;;;;;;19.10;14.60;;;;;;;-146.18;100.00;67994.34;9984408;28;20418;-72
2023/05/06 21:52:09;;;;;;;17.45;14.13;;;;;;;-146.18;100.00;67994.34;9986706;28;20040;-71
2023/05/06 21:57:07;;;;;;;18.73;12.90;;;;;;;-146.18;100.00;67994.34;9983967;28;20052;-71
2023/05/06 22:02:04;;;;;;;17.25;13.40;;;;;;;-146.18;100.00;67994.34;9981876;28;20442;-72